Time;durP1;ratioP1;P1;durP2;ratioP2;P2;SDS_P1;SDS_P2;PMS_P1;PMS_P2;Temp;Humidity;BMP_temperature;BMP_pressure;BME280_temperature;BME280_humidity;BME280_pressure;Samples;Min_cycle;Max_cycle;Signal;HPM_P1;HPM_P2
2021/09/22 00:00:29;;;;;;;;;;;;;;;21.29;79.84;102803.66;7276217;19;151790;-50
2021/09/22 00:02:56;;;;;;;;;;;;;;;21.30;79.58;102796.94;7280962;19;152020;-51
2021/09/22 00:05:23;;;;;;;;;;;;;;;21.35;79.77;102796.13;7281967;19;152065;-50
2021/09/22 00:07:49;;;;;;;;;;;;;;;21.34;80.13;102788.78;7282562;19;152169;-50
2021/09/22 00:10:17;;;;;;;;;;;;;;;21.33;79.66;102796.38;7290453;19;153210;-51
2021/09/22 00:12:47;;;;;;;;;;;;;;;21.30;79.93;102808.16;7284937;19;152285;-51
2021/09/22 00:15:15;;;;;;;;;;;;;;;21.33;79.82;102799.19;7283117;19;153253;-51
2021/09/22 00:17:42;;;;;;;;;;;;;;;21.33;79.95;102803.97;7283680;19;154195;-50
2021/09/22 00:20:10;;;;;;;;;;;;;;;21.32;79.77;102796.63;7283217;19;151595;-51
2021/09/22 00:22:37;;;;;;;;;;;;;;;21.30;80.27;102805.34;7283443;19;153334;-50
2021/09/22 00:25:04;;;;;;;;;;;;;;;21.30;80.27;102797.75;7282394;19;153888;-50
2021/09/22 00:27:31;;;;;;;;;;;;;;;21.29;80.69;102796.06;7283760;19;151748;-51
2021/09/22 00:29:58;;;;;;;;;;;;;;;21.30;80.44;102805.34;7282932;19;151935;-51
2021/09/22 00:32:26;;;;;;;;;;;;;;;21.32;80.17;102802.25;7290363;19;155275;-51
2021/09/22 00:34:53;;;;;;;;;;;;;;;21.31;80.55;102795.78;7283187;19;153514;-51
2021/09/22 00:37:22;;;;;;;;;;;;;;;21.30;80.62;102800.56;7282036;19;154307;-50
2021/09/22 00:39:49;;;;;;;;;;;;;;;21.33;80.40;102798.34;7281580;19;151754;-50
2021/09/22 00:42:16;;;;;;;;;;;;;;;21.29;80.51;102796.06;7283488;19;152028;-51
2021/09/22 00:44:49;;;;;;;;;;;;;;;21.32;80.66;102793.81;7281694;19;153280;-51
2021/09/22 00:47:15;;;;;;;;;;;;;;;21.30;81.00;102788.50;7279237;19;152369;-50
2021/09/22 00:49:42;;;;;;;;;;;;;;;21.30;80.59;102782.88;7281620;19;152815;-50
2021/09/22 00:52:11;;;;;;;;;;;;;;;21.31;80.67;102778.91;7289462;19;152879;-51
2021/09/22 00:54:38;;;;;;;;;;;;;;;21.30;80.71;102782.88;7280388;19;151903;-51
2021/09/22 00:57:05;;;;;;;;;;;;;;;21.30;81.05;102782.88;7282247;19;152618;-51
2021/09/22 00:59:31;;;;;;;;;;;;;;;21.29;81.19;102776.41;7283475;19;151877;-51
2021/09/22 01:01:59;;;;;;;;;;;;;;;21.31;81.09;102773.28;7281682;19;153634;-50
2021/09/22 01:04:26;;;;;;;;;;;;;;;21.32;81.08;102776.94;7282494;19;153112;-50
2021/09/22 01:06:53;;;;;;;;;;;;;;;21.30;81.10;102780.88;7279587;19;151809;-51
2021/09/22 01:09:20;;;;;;;;;;;;;;;21.31;81.13;102781.72;7283639;19;151937;-50
2021/09/22 01:11:47;;;;;;;;;;;;;;;21.33;80.76;102781.47;7282375;19;154053;-50
2021/09/22 01:14:14;;;;;;;;;;;;;;;21.31;81.22;102781.72;7290716;19;151700;-51
2021/09/22 01:16:41;;;;;;;;;;;;;;;21.31;81.26;102790.16;7276737;19;153991;-50
2021/09/22 01:19:08;;;;;;;;;;;;;;;21.28;81.31;102790.72;7280996;19;152129;-51
2021/09/22 01:21:35;;;;;;;;;;;;;;;21.31;81.00;102781.72;7283468;19;153000;-51
2021/09/22 01:24:02;;;;;;;;;;;;;;;21.32;81.18;102779.75;7280609;19;153479;-51
2021/09/22 01:26:32;;;;;;;;;;;;;;;21.31;81.08;102778.91;7280983;19;151979;-50
2021/09/22 01:28:59;;;;;;;;;;;;;;;21.32;81.06;102777.81;7282878;19;153366;-52
2021/09/22 01:31:26;;;;;;;;;;;;;;;21.32;81.02;102779.75;7279110;19;153332;-51
2021/09/22 01:33:53;;;;;;;;;;;;;;;21.30;81.53;102780.88;7287267;19;151850;-51
2021/09/22 01:36:20;;;;;;;;;;;;;;;21.34;81.51;102771.91;7295028;19;152673;-51
2021/09/22 01:38:47;;;;;;;;;;;;;;;21.32;81.75;102777.81;7289979;19;151777;-51
2021/09/22 01:41:14;;;;;;;;;;;;;;;21.34;81.66;102778.41;7286099;19;152787;-51
2021/09/22 01:43:41;;;;;;;;;;;;;;;21.33;81.69;102775.84;7285895;19;153794;-50
2021/09/22 01:46:08;;;;;;;;;;;;;;;21.33;81.30;102770.22;7285479;19;151822;-49
2021/09/22 01:48:35;;;;;;;;;;;;;;;21.32;81.81;102760.09;7285684;19;153450;-51
2021/09/22 01:51:03;;;;;;;;;;;;;;;21.34;81.66;102755.06;7287186;19;154086;-51
2021/09/22 01:53:30;;;;;;;;;;;;;;;21.33;81.53;102751.38;7288214;19;152340;-50
2021/09/22 01:55:57;;;;;;;;;;;;;;;21.32;81.78;102751.66;7287009;19;154528;-51
2021/09/22 01:58:25;;;;;;;;;;;;;;;21.32;81.80;102749.69;7294169;19;153261;-50
2021/09/22 02:00:53;;;;;;;;;;;;;;;21.34;81.55;102752.25;7286266;19;151737;-50
2021/09/22 02:03:20;;;;;;;;;;;;;;;21.33;81.69;102742.09;7287451;19;154331;-50
2021/09/22 02:05:47;;;;;;;;;;;;;;;21.33;81.89;102744.91;7285755;19;152026;-50
2021/09/22 02:08:14;;;;;;;;;;;;;;;21.34;81.75;102743.81;7289198;19;152589;-50
2021/09/22 02:10:41;;;;;;;;;;;;;;;21.33;82.09;102742.94;7286508;19;153267;-49
2021/09/22 02:13:08;;;;;;;;;;;;;;;21.32;81.72;102744.06;7288210;19;151639;-51
2021/09/22 02:15:35;;;;;;;;;;;;;;;21.33;81.58;102745.75;7288644;19;151931;-50
2021/09/22 02:18:02;;;;;;;;;;;;;;;21.33;81.78;102739.28;7286291;19;153864;-50
2021/09/22 02:20:29;;;;;;;;;;;;;;;21.34;81.48;102738.19;7295238;19;152335;-50
2021/09/22 02:22:55;;;;;;;;;;;;;;;21.36;81.65;102735.94;7286771;19;152763;-50
2021/09/22 02:25:22;;;;;;;;;;;;;;;21.36;82.08;102727.50;7288420;19;152093;-50
2021/09/22 02:27:49;;;;;;;;;;;;;;;21.34;81.93;102733.41;7285161;19;153343;-50
2021/09/22 02:30:18;;;;;;;;;;;;;;;21.34;81.86;102735.38;7286153;19;153268;-50
2021/09/22 02:32:45;;;;;;;;;;;;;;;21.34;81.67;102724.13;7288349;19;151711;-49
2021/09/22 02:35:12;;;;;;;;;;;;;;;21.34;81.94;102724.97;7288440;19;153059;-50
2021/09/22 02:37:40;;;;;;;;;;;;;;;21.34;82.00;102722.16;7288000;19;153400;-50
2021/09/22 02:40:09;;;;;;;;;;;;;;;21.34;81.74;102721.31;7295513;19;151801;-50
2021/09/22 02:42:35;;;;;;;;;;;;;;;21.34;81.93;102713.72;7287517;19;152056;-51
2021/09/22 02:45:02;;;;;;;;;;;;;;;21.32;81.95;102724.38;7284500;19;151661;-50
2021/09/22 02:47:29;;;;;;;;;;;;;;;21.34;81.77;102712.88;7283234;19;152901;-50
2021/09/22 02:49:56;;;;;;;;;;;;;;;21.34;81.69;102710.91;7283714;19;153311;-50
2021/09/22 02:52:22;;;;;;;;;;;;;;;21.33;82.02;102714.84;7287574;19;151922;-50
2021/09/22 02:54:49;;;;;;;;;;;;;;;21.34;81.99;102715.69;7288254;19;153034;-50
2021/09/22 02:57:16;;;;;;;;;;;;;;;21.35;81.73;102711.75;7287252;19;154026;-50
2021/09/22 02:59:43;;;;;;;;;;;;;;;21.32;81.35;102707.50;7287292;19;151913;-50
2021/09/22 03:02:10;;;;;;;;;;;;;;;21.35;81.80;102709.78;7293658;19;153255;-51
2021/09/22 03:04:37;;;;;;;;;;;;;;;21.32;81.60;102707.50;7287618;19;151720;-51
2021/09/22 03:07:04;;;;;;;;;;;;;;;21.33;81.68;102703.59;7285916;19;152601;-50
2021/09/22 03:09:31;;;;;;;;;;;;;;;21.32;81.78;102696.25;7285391;19;152316;-50
2021/09/22 03:11:58;;;;;;;;;;;;;;;21.33;81.56;102702.75;7286625;19;151774;-50
2021/09/22 03:14:24;;;;;;;;;;;;;;;21.33;81.88;102697.97;7286660;19;151919;-50
2021/09/22 03:16:51;;;;;;;;;;;;;;;21.32;81.79;102689.78;7286159;19;153343;-50
2021/09/22 03:19:18;;;;;;;;;;;;;;;21.30;81.57;102693.72;7285959;19;152091;-50
2021/09/22 03:21:45;;;;;;;;;;;;;;;21.30;81.93;102695.72;7286192;19;153160;-50
2021/09/22 03:24:12;;;;;;;;;;;;;;;21.32;81.67;102693.44;7291054;19;153972;-50
2021/09/22 03:26:38;;;;;;;;;;;;;;;21.32;81.57;102695.41;7286332;19;152611;-50
2021/09/22 03:29:05;;;;;;;;;;;;;;;21.29;81.42;102694.00;7285752;19;153268;-52
2021/09/22 03:31:32;;;;;;;;;;;;;;;21.30;81.54;102699.34;7286132;19;151746;-50
2021/09/22 03:33:59;;;;;;;;;;;;;;;21.28;81.84;102698.78;7286955;19;152578;-50
2021/09/22 03:36:25;;;;;;;;;;;;;;;21.28;81.99;102700.75;7286308;19;153253;-50
2021/09/22 03:38:52;;;;;;;;;;;;;;;21.29;81.55;102703.28;7284078;19;152291;-50
2021/09/22 03:41:19;;;;;;;;;;;;;;;21.28;81.49;102698.78;7285736;19;151606;-50
2021/09/22 03:43:46;;;;;;;;;;;;;;;21.28;81.70;102693.16;7286016;19;153431;-50
2021/09/22 03:46:12;;;;;;;;;;;;;;;21.29;81.64;102692.03;7293722;19;151991;-50
2021/09/22 03:48:39;;;;;;;;;;;;;;;21.31;82.05;102700.19;7282162;19;154309;-50
2021/09/22 03:51:06;;;;;;;;;;;;;;;21.29;81.64;102700.47;7282283;19;152064;-50
2021/09/22 03:53:33;;;;;;;;;;;;;;;21.29;81.90;102708.06;7286467;19;151928;-49
2021/09/22 03:56:00;;;;;;;;;;;;;;;21.30;81.77;102702.16;7280432;19;154426;-50
2021/09/22 03:58:26;;;;;;;;;;;;;;;21.30;81.63;102701.34;7285974;19;152516;-50
2021/09/22 04:00:53;;;;;;;;;;;;;;;21.30;81.90;102695.72;7285832;19;152588;-50
2021/09/22 04:03:20;;;;;;;;;;;;;;;21.28;81.98;102687.53;7284357;19;152249;-50
2021/09/22 04:05:47;;;;;;;;;;;;;;;21.28;81.97;102690.34;7284555;19;152066;-50
2021/09/22 04:08:14;;;;;;;;;;;;;;;21.29;82.21;102682.75;7289977;19;153418;-50
2021/09/22 04:10:41;;;;;;;;;;;;;;;21.28;81.74;102689.50;7285139;19;151797;-50
2021/09/22 04:13:08;;;;;;;;;;;;;;;21.27;82.15;102682.16;7285511;19;152157;-50
2021/09/22 04:15:34;;;;;;;;;;;;;;;21.28;81.93;102687.53;7281774;19;153921;-50
2021/09/22 04:18:01;;;;;;;;;;;;;;;21.29;82.11;102697.66;7285314;19;151603;-50
2021/09/22 04:20:28;;;;;;;;;;;;;;;21.27;82.16;102697.06;7283094;19;153084;-50
2021/09/22 04:22:55;;;;;;;;;;;;;;;21.28;82.19;102695.97;7282936;19;154237;-50
2021/09/22 04:25:22;;;;;;;;;;;;;;;21.27;81.93;102699.88;7285970;19;151529;-50
2021/09/22 04:27:49;;;;;;;;;;;;;;;21.28;82.01;102695.13;7282778;19;153045;-50
2021/09/22 04:30:16;;;;;;;;;;;;;;;21.27;82.17;102702.69;7291494;19;154002;-50
2021/09/22 04:32:42;;;;;;;;;;;;;;;21.25;82.03;102695.66;7285380;19;153091;-49
2021/09/22 04:35:09;;;;;;;;;;;;;;;21.26;81.72;102702.97;7283417;19;153229;-50
2021/09/22 04:37:37;;;;;;;;;;;;;;;21.27;81.94;102697.06;7285055;19;152307;-51
2021/09/22 04:40:06;;;;;;;;;;;;;;;21.26;82.02;102701.00;7284864;19;152116;-50
2021/09/22 04:42:33;;;;;;;;;;;;;;;21.27;81.99;102704.66;7283655;19;154207;-50
2021/09/22 04:45:00;;;;;;;;;;;;;;;21.28;82.00;102709.19;7283954;19;152234;-50
2021/09/22 04:47:27;;;;;;;;;;;;;;;21.28;81.93;102701.59;7283357;19;152626;-50
2021/09/22 04:49:55;;;;;;;;;;;;;;;21.27;82.00;102699.03;7285347;19;153777;-50
2021/09/22 04:52:22;;;;;;;;;;;;;;;21.28;81.78;102697.94;7280123;19;152502;-50
2021/09/22 04:54:49;;;;;;;;;;;;;;;21.27;82.14;102699.03;7280903;19;153964;-49
2021/09/22 04:57:16;;;;;;;;;;;;;;;21.26;82.16;102702.97;7284719;19;151815;-50
2021/09/22 04:59:42;;;;;;;;;;;;;;;21.25;82.22;102701.28;7284173;19;153334;-50
2021/09/22 05:02:09;;;;;;;;;;;;;;;21.26;81.93;102705.78;7282643;19;152846;-50
2021/09/22 05:04:36;;;;;;;;;;;;;;;21.24;82.13;102697.63;7281989;19;151997;-50
2021/09/22 05:07:03;;;;;;;;;;;;;;;21.24;81.83;102699.59;7282930;19;153542;-50
2021/09/22 05:09:31;;;;;;;;;;;;;;;21.26;81.84;102702.97;7281364;19;154576;-50
2021/09/22 05:12:00;;;;;;;;;;;;;;;21.24;82.12;102691.16;7291355;19;152400;-50
2021/09/22 05:14:27;;;;;;;;;;;;;;;21.23;81.84;102695.94;7281289;19;153336;-50
2021/09/22 05:16:54;;;;;;;;;;;;;;;21.22;81.74;102688.59;7282069;19;152652;-50
2021/09/22 05:19:21;;;;;;;;;;;;;;;21.22;81.75;102694.22;7282234;19;154569;-51
2021/09/22 05:21:48;;;;;;;;;;;;;;;21.23;81.83;102697.88;7282609;19;153419;-50
2021/09/22 05:24:14;;;;;;;;;;;;;;;21.21;82.02;102700.97;7283271;19;152783;-50
2021/09/22 05:26:41;;;;;;;;;;;;;;;21.20;82.10;102698.44;7281525;19;152429;-51
2021/09/22 05:29:08;;;;;;;;;;;;;;;21.20;82.08;102695.63;7283257;19;153183;-52
2021/09/22 05:31:35;;;;;;;;;;;;;;;21.21;81.92;102695.34;7282755;19;151801;-50
2021/09/22 05:34:02;;;;;;;;;;;;;;;21.20;82.27;102695.63;7289182;19;154478;-51
2021/09/22 05:36:29;;;;;;;;;;;;;;;21.21;82.17;102702.94;7283604;19;151843;-51
2021/09/22 05:38:56;;;;;;;;;;;;;;;21.21;81.82;102706.59;7282431;19;152430;-52
2021/09/22 05:41:23;;;;;;;;;;;;;;;21.21;81.79;102712.22;7282142;19;153248;-51
2021/09/22 05:43:49;;;;;;;;;;;;;;;21.21;81.85;102698.16;7283134;19;151720;-51
2021/09/22 05:46:16;;;;;;;;;;;;;;;21.21;82.02;102697.34;7282420;19;151653;-50
2021/09/22 05:48:43;;;;;;;;;;;;;;;21.20;81.81;102687.19;7278821;19;152894;-52
2021/09/22 05:51:10;;;;;;;;;;;;;;;21.18;82.18;102698.69;7276866;19;152245;-51
2021/09/22 05:53:37;;;;;;;;;;;;;;;21.21;82.27;102700.16;7279235;19;152609;-52
2021/09/22 05:56:04;;;;;;;;;;;;;;;21.21;82.08;102705.75;7286535;19;153904;-51
2021/09/22 05:58:31;;;;;;;;;;;;;;;21.26;81.87;102715.06;7281617;19;152678;-51
2021/09/22 06:00:59;;;;;;;;;;;;;;;21.24;82.17;102708.88;7281586;19;153223;-51
2021/09/22 06:03:26;;;;;;;;;;;;;;;21.29;82.52;102708.91;7281526;19;151657;-51
2021/09/22 06:05:53;;;;;;;;;;;;;;;21.33;83.05;102699.94;7282788;19;152782;-51
2021/09/22 06:08:20;;;;;;;;;;;;;;;21.40;82.68;102700.53;7279373;19;152227;-52
2021/09/22 06:10:47;;;;;;;;;;;;;;;21.46;82.76;102697.47;7281553;19;151898;-51
2021/09/22 06:13:13;;;;;;;;;;;;;;;21.49;83.55;102696.94;7282244;19;152491;-51
2021/09/22 06:15:40;;;;;;;;;;;;;;;21.52;84.26;102698.38;7280555;19;153212;-51
2021/09/22 06:18:07;;;;;;;;;;;;;;;21.57;84.60;102704.03;7290081;19;152081;-51
2021/09/22 06:20:34;;;;;;;;;;;;;;;21.62;84.67;102706.88;7283843;19;153151;-51
2021/09/22 06:23:01;;;;;;;;;;;;;;;21.68;85.14;102709.41;7286225;19;152085;-51
2021/09/22 06:25:28;;;;;;;;;;;;;;;21.74;85.26;102705.53;7287167;19;153175;-51
2021/09/22 06:27:55;;;;;;;;;;;;;;;21.85;84.70;102700.75;7285657;19;152645;-51
2021/09/22 06:30:22;;;;;;;;;;;;;;;21.88;84.31;102697.41;7286236;19;152357;-51
2021/09/22 06:32:49;;;;;;;;;;;;;;;21.95;83.23;102702.81;7288634;19;153272;-51
2021/09/22 06:35:15;;;;;;;;;;;;;;;21.87;77.28;102697.69;7285718;19;154266;-51
2021/09/22 06:37:45;;;;;;;;;;;;;;;21.74;74.07;102691.44;7288775;19;151951;-51
2021/09/22 06:40:12;;;;;;;;;;;;;;;21.63;72.91;102689.69;7293899;19;152546;-51
2021/09/22 06:42:38;;;;;;;;;;;;;;;21.67;71.84;102690.84;7287413;19;151801;-51
2021/09/22 06:45:06;;;;;;;;;;;;;;;21.67;71.69;102687.16;7287224;19;152744;-51
2021/09/22 06:47:33;;;;;;;;;;;;;;;21.54;71.25;102690.47;7284533;19;152623;-50
2021/09/22 06:50:00;;;;;;;;;;;;;;;21.55;71.06;102686.56;7287685;19;151820;-53
2021/09/22 06:52:29;;;;;;;;;;;;;;;21.52;70.81;102689.94;7283832;19;152313;-52
2021/09/22 06:54:56;;;;;;;;;;;;;;;21.50;70.43;102683.72;7285218;19;152288;-50
2021/09/22 06:57:23;;;;;;;;;;;;;;;21.48;70.61;102686.81;7282443;19;152389;-51
2021/09/22 06:59:49;;;;;;;;;;;;;;;21.35;70.57;102686.47;7289751;19;153257;-50
2021/09/22 07:02:16;;;;;;;;;;;;;;;21.23;70.88;102681.03;7283990;19;152271;-51
2021/09/22 07:04:44;;;;;;;;;;;;;;;21.14;70.83;102685.47;7282252;19;153716;-51
2021/09/22 07:07:11;;;;;;;;;;;;;;;21.15;70.94;102695.59;7283371;19;153851;-51
2021/09/22 07:09:38;;;;;;;;;;;;;;;21.13;70.79;102687.41;7281742;19;152607;-51
2021/09/22 07:12:04;;;;;;;;;;;;;;;21.26;71.49;102688.91;7284932;19;153403;-51
2021/09/22 07:14:31;;;;;;;;;;;;;;;21.39;72.04;102684.78;7283086;19;153284;-50
2021/09/22 07:16:58;;;;;;;;;;;;;;;21.46;73.03;102682.56;7283331;19;152790;-49
2021/09/22 07:19:25;;;;;;;;;;;;;;;21.55;72.93;102681.78;7281294;19;153576;-53
2021/09/22 07:21:52;;;;;;;;;;;;;;;21.58;72.93;102683.19;7285224;19;153353;-51
2021/09/22 07:24:18;;;;;;;;;;;;;;;21.63;73.09;102692.50;7278803;19;152957;-51
2021/09/22 07:26:45;;;;;;;;;;;;;;;21.69;73.51;102694.25;7276180;19;153111;-50
2021/09/22 07:29:12;;;;;;;;;;;;;;;21.74;73.67;102688.63;7282950;19;151827;-51
2021/09/22 07:31:39;;;;;;;;;;;;;;;21.77;73.60;102697.63;7285829;19;152580;-51
2021/09/22 07:34:06;;;;;;;;;;;;;;;21.80;73.96;102697.09;7284237;19;153605;-51
2021/09/22 07:36:34;;;;;;;;;;;;;;;21.83;73.87;102697.41;7287591;19;152004;-51
2021/09/22 07:39:01;;;;;;;;;;;;;;;21.86;74.09;102698.78;7287159;19;153285;-51
2021/09/22 07:41:28;;;;;;;;;;;;;;;21.88;74.22;102699.38;7286292;19;153140;-51
2021/09/22 07:43:55;;;;;;;;;;;;;;;21.92;74.05;102700.53;7293208;19;152306;-51
2021/09/22 07:46:22;;;;;;;;;;;;;;;21.93;74.13;102707.88;7269311;19;154012;-51
2021/09/22 07:48:49;;;;;;;;;;;;;;;21.93;74.04;102700.28;7282935;19;151879;-51
2021/09/22 07:51:17;;;;;;;;;;;;;;;21.98;73.93;102702.28;7282381;19;153190;-51
2021/09/22 07:53:44;;;;;;;;;;;;;;;21.99;74.09;102707.59;7277998;19;155846;-51
2021/09/22 07:56:11;;;;;;;;;;;;;;;22.00;73.83;102702.84;7283169;19;151936;-50
2021/09/22 07:58:38;;;;;;;;;;;;;;;22.00;73.70;102712.13;7284739;19;152620;-51
2021/09/22 08:01:05;;;;;;;;;;;;;;;22.01;73.82;102710.16;7284805;19;152588;-50
2021/09/22 08:03:33;;;;;;;;;;;;;;;22.02;73.74;102718.34;7280005;19;152004;-50
2021/09/22 08:06:01;;;;;;;;;;;;;;;22.02;73.70;102717.50;7293038;19;153406;-51
2021/09/22 08:08:28;;;;;;;;;;;;;;;22.03;74.01;102707.94;7284767;19;151776;-51
2021/09/22 08:10:55;;;;;;;;;;;;;;;22.02;74.19;102701.44;7286183;19;152860;-59
2021/09/22 08:13:22;;;;;;;;;;;;;;;22.02;73.81;102703.41;7284775;19;153382;-51
2021/09/22 08:15:49;;;;;;;;;;;;;;;22.04;73.91;102706.78;7286385;19;151402;-51
2021/09/22 08:18:17;;;;;;;;;;;;;;;22.04;73.83;102709.59;7285329;19;151971;-51
2021/09/22 08:20:44;;;;;;;;;;;;;;;22.04;73.89;102701.16;7283193;19;153506;-51
2021/09/22 08:23:11;;;;;;;;;;;;;;;22.04;74.41;102712.41;7283687;19;152141;-50
2021/09/22 08:25:38;;;;;;;;;;;;;;;22.03;74.04;102716.38;7283992;19;153374;-52
2021/09/22 08:28:05;;;;;;;;;;;;;;;22.03;74.44;102716.38;7291010;19;152938;-51
2021/09/22 08:30:32;;;;;;;;;;;;;;;22.03;74.15;102724.81;7284733;19;152827;-51
2021/09/22 08:32:59;;;;;;;;;;;;;;;22.04;73.79;102724.53;7283115;19;154267;-50
2021/09/22 08:35:26;;;;;;;;;;;;;;;22.05;73.71;102716.94;7285198;19;152140;-51
2021/09/22 08:37:53;;;;;;;;;;;;;;;22.04;74.45;102703.97;7286453;19;153105;-51
2021/09/22 08:40:20;;;;;;;;;;;;;;;22.04;74.36;102716.06;7285148;19;152374;-51
2021/09/22 08:42:48;;;;;;;;;;;;;;;22.06;74.32;102702.59;7281043;19;151547;-51
2021/09/22 08:45:15;;;;;;;;;;;;;;;22.02;74.00;102712.72;7285261;19;153422;-51
2021/09/22 08:47:43;;;;;;;;;;;;;;;22.03;74.16;102703.13;7284405;19;153457;-51
2021/09/22 08:50:12;;;;;;;;;;;;;;;22.04;73.97;102704.81;7288948;19;151895;-51
2021/09/22 08:52:40;;;;;;;;;;;;;;;22.04;74.04;102716.06;7282657;19;153849;-51
2021/09/22 08:55:08;;;;;;;;;;;;;;;22.04;74.50;102706.78;7282693;19;152105;-51
2021/09/22 08:57:35;;;;;;;;;;;;;;;22.05;74.43;102706.50;7282196;19;152751;-52
2021/09/22 09:00:04;;;;;;;;;;;;;;;22.06;74.69;102711.03;7282406;19;153308;-50
2021/09/22 09:02:35;;;;;;;;;;;;;;;22.09;74.37;102713.28;7282704;19;152488;-51
2021/09/22 09:05:06;;;;;;;;;;;;;;;22.13;74.71;102716.38;7281286;19;154662;-51
2021/09/22 09:07:33;;;;;;;;;;;;;;;22.20;74.25;102713.31;7275103;19;154423;-51
2021/09/22 09:10:03;;;;;;;;;;;;;;;22.26;74.57;102718.69;7290550;19;151870;-51
2021/09/22 09:12:30;;;;;;;;;;;;;;;22.30;74.31;102714.22;7282251;19;152829;-51
2021/09/22 09:14:59;;;;;;;;;;;;;;;22.34;74.57;102711.69;7282968;19;151795;-50
2021/09/22 09:17:29;;;;;;;;;;;;;;;22.38;74.50;102716.47;7284183;19;153510;-51
2021/09/22 09:19:57;;;;;;;;;;;;;;;22.41;74.73;102709.44;7284115;19;153966;-51
2021/09/22 09:22:24;;;;;;;;;;;;;;;22.47;74.70;102708.31;7285035;19;151980;-51
2021/09/22 09:24:56;;;;;;;;;;;;;;;22.50;74.28;102708.59;7283759;19;151706;-51
2021/09/22 09:27:24;;;;;;;;;;;;;;;22.55;74.31;102702.97;7283723;19;154815;-51
2021/09/22 09:29:53;;;;;;;;;;;;;;;22.58;74.17;102695.94;7280051;19;151686;-51
2021/09/22 09:32:21;;;;;;;;;;;;;;;22.61;74.54;102693.41;7288655;19;152922;-51
2021/09/22 09:34:52;;;;;;;;;;;;;;;22.65;74.40;102696.53;7284391;19;151506;-51
2021/09/22 09:37:27;;;;;;;;;;;;;;;22.70;74.18;102696.56;7283848;19;152594;-51
2021/09/22 09:39:55;;;;;;;;;;;;;;;22.73;74.12;102690.34;7281622;19;152433;-51
2021/09/22 09:42:25;;;;;;;;;;;;;;;22.77;74.23;102693.44;7283690;19;151893;-51
2021/09/22 09:44:55;;;;;;;;;;;;;;;22.80;74.08;102681.63;7282006;19;153731;-51
2021/09/22 09:47:22;;;;;;;;;;;;;;;22.83;73.91;102675.41;7283212;19;153847;-51
2021/09/22 09:49:49;;;;;;;;;;;;;;;22.84;74.13;102675.16;7281566;19;151829;-51
2021/09/22 09:52:16;;;;;;;;;;;;;;;22.86;73.96;102669.22;7282893;19;152702;-51
2021/09/22 09:54:47;;;;;;;;;;;;;;;22.90;73.41;102665.53;7288313;19;154129;-51
2021/09/22 09:57:16;;;;;;;;;;;;;;;22.92;73.68;102665.25;7290307;19;153404;-50
2021/09/22 09:59:46;;;;;;;;;;;;;;;22.94;73.63;102665.84;7288960;19;153769;-50
2021/09/22 10:02:16;;;;;;;;;;;;;;;22.96;73.28;102660.75;7286769;19;152115;-50
2021/09/22 10:04:45;;;;;;;;;;;;;;;22.99;73.31;102657.34;7286098;19;152209;-51
2021/09/22 10:07:13;;;;;;;;;;;;;;;23.00;73.29;102653.41;7286411;19;153259;-51
2021/09/22 10:09:46;;;;;;;;;;;;;;;23.03;73.34;102652.88;7285343;19;151770;-51
2021/09/22 10:12:16;;;;;;;;;;;;;;;23.05;72.92;102653.41;7288533;19;152534;-51
2021/09/22 10:15:07;;;;;;;;;;;;;;;23.07;73.02;102644.69;7286167;19;152298;-51
2021/09/22 10:17:44;;;;;;;;;;;;;;;23.08;73.00;102646.38;7278344;19;154572;-51
2021/09/22 10:20:16;;;;;;;;;;;;;;;23.11;72.50;102642.97;7285905;19;154026;-51
2021/09/22 10:22:44;;;;;;;;;;;;;;;23.12;73.09;102653.13;7281614;19;151596;-52
2021/09/22 10:25:19;;;;;;;;;;;;;;;23.12;72.55;102653.97;7283377;19;153430;-51
2021/09/22 10:28:01;;;;;;;;;;;;;;;23.14;72.84;102651.69;7287568;19;152838;-51
2021/09/22 10:30:32;;;;;;;;;;;;;;;23.17;72.34;102647.47;7285612;19;152132;-54
2021/09/22 10:33:03;;;;;;;;;;;;;;;23.18;72.52;102651.97;7288357;19;154055;-51
2021/09/22 10:35:35;;;;;;;;;;;;;;;23.18;72.50;102643.50;7286158;19;154165;-51
2021/09/22 10:38:26;;;;;;;;;;;;;;;23.20;72.39;102650.56;7288987;19;151769;-51
2021/09/22 10:41:22;;;;;;;;;;;;;;;23.21;72.24;102640.97;7293743;19;152116;-49
2021/09/22 10:43:49;;;;;;;;;;;;;;;23.20;72.06;102639.28;7288845;19;151913;-51
2021/09/22 10:46:21;;;;;;;;;;;;;;;23.23;72.05;102640.69;7286216;19;152712;-52
2021/09/22 10:49:03;;;;;;;;;;;;;;;23.24;72.15;102634.75;7286852;19;152800;-51
2021/09/22 10:51:32;;;;;;;;;;;;;;;23.24;71.85;102629.13;7285746;19;152161;-51
2021/09/22 10:54:03;;;;;;;;;;;;;;;23.25;71.82;102624.34;7287114;19;153299;-51
2021/09/22 10:56:31;;;;;;;;;;;;;;;23.24;72.15;102626.31;7283076;19;153542;-52
2021/09/22 10:59:02;;;;;;;;;;;;;;;23.26;71.62;102621.19;7288200;19;151856;-51
2021/09/22 11:01:32;;;;;;;;;;;;;;;23.24;71.63;102615.03;7286458;19;152543;-54
2021/09/22 11:04:04;;;;;;;;;;;;;;;23.25;71.40;102611.06;7292776;19;151577;-51
2021/09/22 11:06:42;;;;;;;;;;;;;;;23.27;71.58;102617.25;7282007;19;152030;-51
2021/09/22 11:09:11;;;;;;;;;;;;;;;23.26;71.58;102615.56;7286243;19;154298;-51
2021/09/22 11:11:41;;;;;;;;;;;;;;;23.26;71.19;102600.66;7288753;19;151738;-51
2021/09/22 11:14:29;;;;;;;;;;;;;;;23.27;71.05;102603.16;7287315;19;153225;-51
2021/09/22 11:16:57;;;;;;;;;;;;;;;23.26;71.45;102601.47;7286862;19;154051;-52
2021/09/22 11:19:24;;;;;;;;;;;;;;;23.26;71.41;102604.28;7288217;19;151729;-51
2021/09/22 11:21:52;;;;;;;;;;;;;;;23.28;71.37;102598.38;7285691;19;152737;-51
2021/09/22 11:24:21;;;;;;;;;;;;;;;23.28;71.18;102595.53;7293301;19;154149;-51
2021/09/22 11:26:50;;;;;;;;;;;;;;;23.28;71.15;102590.75;7286988;19;152744;-52
2021/09/22 11:29:40;;;;;;;;;;;;;;;23.29;71.19;102583.97;7282625;19;154044;-51
2021/09/22 11:32:37;;;;;;;;;;;;;;;23.29;71.27;102571.84;7287569;19;151794;-51
2021/09/22 11:35:23;;;;;;;;;;;;;;;23.30;71.49;102571.56;7282273;19;151818;-50
2021/09/22 11:37:53;;;;;;;;;;;;;;;23.31;71.19;102575.22;7286956;19;154176;-51
2021/09/22 11:40:22;;;;;;;;;;;;;;;23.29;71.52;102569.88;7285297;19;151930;-51
2021/09/22 11:42:53;;;;;;;;;;;;;;;23.32;71.47;102563.66;7286790;19;152611;-51
2021/09/22 11:45:43;;;;;;;;;;;;;;;23.32;71.45;102569.28;7286195;19;152949;-52
2021/09/22 11:52:03;;;;;;;;;;;;;;;23.31;71.45;102567.59;7281465;19;153013;-52
2021/09/22 11:55:36;;;;;;;;;;;;;;;23.32;71.43;102558.00;7279173;19;151866;-51
2021/09/22 11:58:05;;;;;;;;;;;;;;;23.31;71.56;102561.97;7282848;19;151972;-51
2021/09/22 12:00:33;;;;;;;;;;;;;;;23.28;71.85;102551.25;7283715;19;153981;-51
2021/09/22 12:03:04;;;;;;;;;;;;;;;23.30;71.72;102546.19;7287334;19;151764;-52
2021/09/22 12:05:31;;;;;;;;;;;;;;;23.29;71.52;102541.69;7282562;19;153343;-51
2021/09/22 12:07:59;;;;;;;;;;;;;;;23.30;71.70;102536.88;7281630;19;153296;-51
2021/09/22 12:10:26;;;;;;;;;;;;;;;23.31;71.45;102539.41;7283225;19;151862;-51
2021/09/22 12:13:00;;;;;;;;;;;;;;;23.27;71.64;102529.81;7293481;19;153179;-51
2021/09/22 12:15:27;;;;;;;;;;;;;;;23.26;71.70;102532.97;7284744;19;151904;-55
2021/09/22 12:17:54;;;;;;;;;;;;;;;23.27;72.08;102529.81;7282886;19;153262;-52
2021/09/22 12:20:21;;;;;;;;;;;;;;;23.26;71.94;102530.13;7282159;19;153313;-51
2021/09/22 12:22:51;;;;;;;;;;;;;;;23.24;72.16;102516.31;7286223;19;151534;-51
2021/09/22 12:25:18;;;;;;;;;;;;;;;23.25;72.05;102517.16;7285890;19;151919;-51
2021/09/22 12:27:47;;;;;;;;;;;;;;;23.21;72.23;102507.59;7280746;19;152100;-51
2021/09/22 12:30:15;;;;;;;;;;;;;;;23.18;72.26;102511.81;7284389;19;151651;-61
2021/09/22 12:32:45;;;;;;;;;;;;;;;23.18;72.22;102511.81;7276261;19;153908;-51
2021/09/22 12:35:12;;;;;;;;;;;;;;;23.21;72.05;102508.44;7292412;19;153498;-52
2021/09/22 12:37:39;;;;;;;;;;;;;;;23.23;72.41;102511.78;7285494;19;152197;-51